KQEV

Gongju Rws

Gongju Rws, South Korea
METAR KQEV 210530Z AUTO 23002KT 9999 OVC020 27/22 A2963 RMK A02 TSNO
Observed Flight Rules
Aug-21 @ 05:30 UTC (9 hours ago) Marginal Visual Flight Rules
Wind Visibility Clouds
230° at 2 knots 10,000+ meters
  • Overcast at 2,000' AGL
Temperatures Readings
Current 27°C / 81°F
Dewpoint 22°C / 72°F
Humidity 74%
Altimeter 29.63" Hg
Pressure 1003 hPa
METAR KQEV 210530Z AUTO 23002KT 9999 OVC020 27/22 A2963 RMK A02 TSNO
Observed Flight Rules
Aug-21 @ 05:30 UTC
(9 hours ago)
MVFR
Wind Visibility
230° at 2 knots 10,000+ meters
Clouds
  • Overcast at 2,000' AGL
Temperature Dewpoint
27°C / 81°F 22°C / 72°F
Humidity Altimeter Pressure
74% 29.63" Hg 1003 hPa